Urb Radioville, Puerto Rico
Current Conditions -  °F | °C
As of 7:50 PM on Wednesday 26 Nov 2014 (Local Time) from TJBQ Reporting Station
Scattered Clouds Scattered Clouds  
Wind Chill: 79°   Ceiling: Unl
Heat Index: 82°   Visibility: 10mi
Dew Point: 72°   Wind: 15mph
Humidity: 78%   Direction: 90°E
Pressure: 30.01"   Gusts: 21mph
Location:  18.4739°N, 66.7295°W
Report Text: TJBQ 262350Z 09013G18KT 10SM SCT023 26/22 A3001 RMK RWY08 ATIS S
Loading
Personal Weather Stations






























Interactive Weather Map New forecast layout! Learn more

10-Day Weather Forecast

Advertisements
Track Severe Weather on mobile